Карточка аэропорта UAKK

Внимание!
Информация на этой странице в стадии наполнения.
Если вы не увидели какой-то информации, или заметили неточность - пожалуйста сообщите нам!
Спасибо!
Команда RU-STAFF
Название аэропортаКараганда
Название аэропорта (англ.)Karaganda
Превышение1768 ft. (538.9 m.)
Координаты49°40.302', 73°20.118'
Высота перехода10000ft
Эшелон переходаFL120, QNH<733:FL130
Коды ответчика0630-0637, 7220-7227
Зона ОрВДАстана РПИ (UACN)
Данные METARUAKK 200600Z 29003MPS 9999 SCT050CB 25/14 Q1003 NOSIG RMK QFE706/0941
Проноз погоды (TAF)UAKK 200501Z 2006/2106 27005MPS 9999 SCT030CB BKN100 TX25/2009Z TN12/2101Z TEMPO 2006/2014 32010MPS 3100 -TSRA BKN020CB BECMG 2014/2016 VRB02MPS SCT030 BKN100 TEMPO 2014/2102 20005MPS 3100 -SHRA BR BKN011 BKN030CB BECMG 2102/2104 30006MPS
NOTAMshow/hide NOTAM
AWOS   TABLE

Информация о ВПП

ВПП Длина ВПП (м.) Покрытие Курс ВПП Частота ILS
233601Железобетон230111.7
053601Железобетон50109.9

Диспетчерские позиции




Спутниковое изображение